createdAt,value
2022-09-05T00:02:27.720Z,4.72
2022-09-05T00:05:21.755Z,4.88
2022-09-05T00:08:28.416Z,5.38
2022-09-05T00:11:41.202Z,4.80
2022-09-05T00:14:13.823Z,5.00
2022-09-05T00:17:00.338Z,4.55
2022-09-05T00:24:19.056Z,4.72
2022-09-05T00:24:34.755Z,4.72
2022-09-05T00:26:34.003Z,5.00
2022-09-05T00:29:10.073Z,4.70
2022-09-05T00:32:03.688Z,4.32
2022-09-05T00:34:47.570Z,5.05
2022-09-05T00:37:45.398Z,4.72
2022-09-05T00:40:31.216Z,5.25
2022-09-05T00:43:22.573Z,4.75
2022-09-05T00:46:18.783Z,5.20
2022-09-05T00:48:58.760Z,5.28
2022-09-05T00:51:52.249Z,4.90
2022-09-05T00:54:43.128Z,5.30
2022-09-05T00:57:51.872Z,5.15
2022-09-05T01:00:48.400Z,4.85
2022-09-05T01:03:41.578Z,4.65
2022-09-05T01:06:31.060Z,5.35
2022-09-05T01:09:24.162Z,5.40
2022-09-05T01:12:16.355Z,5.18
2022-09-05T01:15:14.946Z,4.78
2022-09-05T01:17:56.677Z,5.00
2022-09-05T01:20:52.869Z,5.13
2022-09-05T01:23:33.705Z,4.82
2022-09-05T01:26:16.956Z,5.10
2022-09-05T01:29:18.776Z,5.13
2022-09-05T01:32:11.478Z,4.85
2022-09-05T01:34:54.916Z,5.00
2022-09-05T01:37:33.606Z,4.72
2022-09-05T01:40:36.155Z,5.28
2022-09-05T01:43:45.916Z,5.13
2022-09-05T01:46:52.182Z,4.88
2022-09-05T01:49:27.318Z,5.32
2022-09-05T01:52:17.865Z,4.90
2022-09-05T01:55:06.668Z,5.05
2022-09-05T01:58:01.312Z,4.97
2022-09-05T02:00:46.910Z,4.72
2022-09-05T02:03:25.325Z,4.43
2022-09-05T02:06:30.034Z,4.40
2022-09-05T02:10:06.949Z,4.70
2022-09-05T02:13:03.975Z,4.63
2022-09-05T02:15:59.728Z,4.80
2022-09-05T02:18:44.389Z,4.43
2022-09-05T02:21:25.751Z,4.00
2022-09-05T02:24:16.701Z,5.05
2022-09-05T02:27:38.899Z,4.72
2022-09-05T02:30:09.455Z,4.82
2022-09-05T02:32:36.220Z,4.95
2022-09-05T02:35:13.858Z,4.93
2022-09-05T02:40:54.658Z,4.55
2022-09-05T02:45:13.248Z,4.80
2022-09-05T02:45:20.463Z,4.43
2022-09-05T02:47:26.365Z,4.43
2022-09-05T02:52:14.259Z,4.05
2022-09-05T02:57:24.796Z,4.60
2022-09-05T02:57:42.313Z,4.63
2022-09-05T02:59:09.138Z,4.47
2022-09-05T03:01:42.938Z,4.72
2022-09-05T03:04:31.193Z,4.53
2022-09-05T03:07:10.235Z,4.93
2022-09-05T03:10:09.128Z,4.70
2022-09-05T03:13:06.049Z,4.82
2022-09-05T03:16:14.019Z,4.32
2022-09-05T03:19:16.413Z,4.38
2022-09-05T03:22:22.778Z,4.55
2022-09-05T03:25:01.542Z,4.05
2022-09-05T03:28:10.289Z,4.90
2022-09-05T03:30:40.191Z,4.88
2022-09-05T03:33:22.574Z,4.97
2022-09-05T03:35:52.585Z,4.63
2022-09-05T03:38:54.609Z,4.38
2022-09-05T03:41:33.842Z,4.35
2022-09-05T03:47:06.009Z,4.22
2022-09-05T03:55:12.164Z,4.53
2022-09-05T03:57:06.056Z,4.50
2022-09-05T03:57:14.717Z,4.57
2022-09-05T03:59:29.864Z,4.72
2022-09-05T04:07:40.114Z,4.65
2022-09-05T04:08:18.071Z,4.38
2022-09-05T04:08:41.831Z,4.60
2022-09-05T04:11:21.657Z,4.70
2022-09-05T04:14:00.477Z,4.38
2022-09-05T04:16:31.838Z,4.93
2022-09-05T04:19:37.279Z,4.82
2022-09-05T04:22:20.294Z,4.63
2022-09-05T04:25:02.111Z,4.47
2022-09-05T04:27:37.613Z,4.60
2022-09-05T04:30:44.855Z,4.57
2022-09-05T04:33:38.190Z,4.45
2022-09-05T04:36:23.090Z,4.22
2022-09-05T04:39:17.244Z,4.63
2022-09-05T04:41:56.654Z,4.32
2022-09-05T04:45:00.586Z,6.40
2022-09-05T04:47:43.677Z,9.52
2022-09-05T04:50:18.677Z,10.90
2022-09-05T04:53:16.421Z,10.50
2022-09-05T04:55:52.006Z,10.27
2022-09-05T05:06:12.389Z,7.57
2022-09-05T05:06:16.111Z,9.55
2022-09-05T05:07:18.427Z,7.22
2022-09-05T05:11:18.570Z,6.55
2022-09-05T05:17:55.479Z,6.15
2022-09-05T05:18:01.446Z,5.65
2022-09-05T05:19:23.579Z,5.20
2022-09-05T05:21:55.939Z,4.80
2022-09-05T05:24:32.035Z,5.18
2022-09-05T05:27:06.581Z,5.30
2022-09-05T05:29:59.339Z,5.53
2022-09-05T05:32:45.726Z,8.60
2022-09-05T05:35:19.185Z,11.65
2022-09-05T05:37:49.254Z,16.73
2022-09-05T05:40:16.775Z,13.48
2022-09-05T05:42:48.358Z,10.43
2022-09-05T05:45:25.355Z,9.32
2022-09-05T05:47:59.903Z,9.20
2022-09-05T05:50:29.731Z,9.05
2022-09-05T05:53:33.458Z,7.75
2022-09-05T05:56:39.547Z,6.68
2022-09-05T05:59:36.901Z,6.60
2022-09-05T06:02:10.787Z,6.20
2022-09-05T06:05:04.225Z,6.55
2022-09-05T06:08:17.567Z,6.72
2022-09-05T06:14:52.539Z,8.13
2022-09-05T06:15:02.192Z,7.07
2022-09-05T06:17:28.257Z,6.10
2022-09-05T06:22:04.714Z,6.90
2022-09-05T06:23:37.450Z,6.60
2022-09-05T06:26:49.310Z,6.20
2022-09-05T06:29:38.343Z,7.53
2022-09-05T06:32:25.405Z,7.07
2022-09-05T06:35:07.358Z,7.32
2022-09-05T06:38:11.525Z,7.65
2022-09-05T06:41:02.231Z,7.85
2022-09-05T06:43:50.926Z,9.40
2022-09-05T06:46:54.964Z,9.90
2022-09-05T06:49:42.873Z,7.78
2022-09-05T06:52:40.911Z,8.40
2022-09-05T06:55:26.686Z,7.45
2022-09-05T06:58:23.262Z,8.82
2022-09-05T07:00:57.099Z,7.97
2022-09-05T07:03:24.454Z,7.75
2022-09-05T07:06:08.745Z,6.90
2022-09-05T07:09:11.605Z,7.05
2022-09-05T07:11:50.977Z,7.05
2022-09-05T07:14:31.173Z,7.50
2022-09-05T07:17:18.208Z,7.68
2022-09-05T07:20:00.596Z,7.00
2022-09-05T07:22:46.302Z,6.80
2022-09-05T07:25:22.826Z,6.97
2022-09-05T07:28:25.883Z,6.75
2022-09-05T07:30:50.928Z,6.28
2022-09-05T07:33:20.992Z,6.07
2022-09-05T07:35:48.924Z,6.90
2022-09-05T07:38:24.421Z,6.45
2022-09-05T07:41:23.197Z,5.82
2022-09-05T07:43:55.486Z,6.93
2022-09-05T07:46:30.860Z,6.60
2022-09-05T07:49:02.797Z,6.63
2022-09-05T07:56:56.678Z,12.40
2022-09-05T07:57:10.067Z,19.88
2022-09-05T07:57:29.976Z,19.27
2022-09-05T08:00:26.805Z,14.88
2022-09-05T08:03:08.478Z,10.45
2022-09-05T08:05:41.346Z,9.63
2022-09-05T08:08:20.441Z,9.68
2022-09-05T08:11:24.180Z,9.30
2022-09-05T08:13:48.789Z,9.48
2022-09-05T08:16:21.555Z,8.18
2022-09-05T08:19:31.895Z,7.68
2022-09-05T08:22:01.416Z,7.80
2022-09-05T08:25:11.192Z,7.45
2022-09-05T08:27:56.708Z,7.70
2022-09-05T08:30:26.793Z,10.60
2022-09-05T08:33:16.339Z,13.10
2022-09-05T08:36:00.851Z,14.63
2022-09-05T08:38:40.672Z,10.65
2022-09-05T08:41:49.382Z,8.75
2022-09-05T08:46:43.591Z,9.25
2022-09-05T08:47:48.352Z,11.55
2022-09-05T08:50:41.583Z,9.85
2022-09-05T08:53:45.189Z,10.35
2022-09-05T08:56:21.175Z,9.38
2022-09-05T08:59:31.684Z,8.70
2022-09-05T09:02:14.696Z,8.18
2022-09-05T09:05:14.438Z,10.18
2022-09-05T09:07:57.509Z,16.10
2022-09-05T09:10:28.031Z,16.48
2022-09-05T09:13:52.659Z,12.45
2022-09-05T09:16:39.801Z,10.23
2022-09-05T09:19:29.398Z,9.90
2022-09-05T09:22:02.195Z,8.65
2022-09-05T09:24:50.782Z,7.85
2022-09-05T09:28:48.343Z,7.47
2022-09-05T09:31:16.695Z,8.70
2022-09-05T09:34:05.497Z,13.38
2022-09-05T09:36:51.744Z,10.88
2022-09-05T09:39:59.816Z,12.35
2022-09-05T09:42:48.537Z,11.07
2022-09-05T09:45:34.633Z,8.57
2022-09-05T09:50:58.229Z,8.85
2022-09-05T09:53:53.469Z,8.32
2022-09-05T09:56:20.241Z,9.00
2022-09-05T09:59:28.669Z,8.88
2022-09-05T10:05:22.462Z,7.90
2022-09-05T10:10:53.558Z,7.18
2022-09-05T10:12:00.423Z,7.30
2022-09-05T10:14:52.877Z,7.40
2022-09-05T10:17:55.199Z,7.35
2022-09-05T10:20:36.270Z,7.93
2022-09-05T10:23:18.758Z,8.57
2022-09-05T10:25:58.181Z,11.05
2022-09-05T10:28:45.029Z,9.88
2022-09-05T10:34:52.118Z,16.02
2022-09-05T10:35:13.893Z,19.38
2022-09-05T10:37:18.938Z,16.23
2022-09-05T10:39:51.457Z,15.43
2022-09-05T10:42:38.548Z,10.30
2022-09-05T10:45:38.160Z,8.77
2022-09-05T10:48:27.567Z,10.65
2022-09-05T10:51:29.674Z,8.95
2022-09-05T10:54:31.057Z,9.30
2022-09-05T10:57:15.173Z,8.82
2022-09-05T11:02:22.840Z,7.10
2022-09-05T11:03:32.706Z,6.63
2022-09-05T11:06:09.190Z,7.00
2022-09-05T11:08:47.850Z,8.82
2022-09-05T11:11:28.241Z,7.22
2022-09-05T11:14:27.084Z,11.02
2022-09-05T11:17:04.698Z,15.77
2022-09-05T11:19:57.369Z,10.68
2022-09-05T11:22:26.873Z,7.13
2022-09-05T11:24:59.783Z,7.47
2022-09-05T11:27:37.470Z,8.13
2022-09-05T11:30:30.058Z,8.90
2022-09-05T11:39:45.900Z,7.43
2022-09-05T11:39:54.098Z,7.72
2022-09-05T11:40:09.882Z,7.60
2022-09-05T11:42:37.471Z,6.85
2022-09-05T11:45:07.346Z,7.22
2022-09-05T11:47:53.887Z,7.80
2022-09-05T11:50:31.821Z,7.55
2022-09-05T11:53:24.906Z,8.30
2022-09-05T11:56:06.416Z,9.25
2022-09-05T11:58:48.860Z,9.57
2022-09-05T12:01:44.187Z,11.18
2022-09-05T12:04:43.463Z,11.07
2022-09-05T12:07:31.737Z,8.10
2022-09-05T12:10:46.513Z,10.05
2022-09-05T12:13:40.359Z,7.65
2022-09-05T12:16:32.852Z,8.23
2022-09-05T12:19:34.682Z,7.22
2022-09-05T12:22:29.549Z,9.20
2022-09-05T12:25:25.440Z,8.13
2022-09-05T12:29:09.684Z,8.57
2022-09-05T12:31:55.807Z,9.63
2022-09-05T12:36:02.833Z,10.60
2022-09-05T12:40:27.586Z,9.40
2022-09-05T12:40:48.235Z,9.30
2022-09-05T12:42:48.470Z,8.38
2022-09-05T12:45:44.044Z,8.40
2022-09-05T12:48:39.430Z,7.45
2022-09-05T12:51:45.101Z,8.90
2022-09-05T12:54:32.615Z,8.25
2022-09-05T12:58:53.636Z,8.02
2022-09-05T13:03:01.749Z,7.57
2022-09-05T13:03:06.074Z,7.80
2022-09-05T13:06:24.874Z,8.70
2022-09-05T13:09:00.239Z,7.32
2022-09-05T13:14:59.361Z,9.00
2022-09-05T13:15:03.212Z,7.82
2022-09-05T13:17:16.638Z,8.25
2022-09-05T13:19:51.812Z,8.38
2022-09-05T13:22:21.581Z,7.32
2022-09-05T13:24:58.833Z,8.57
2022-09-05T13:27:31.764Z,9.05
2022-09-05T13:32:41.895Z,8.13
2022-09-05T13:38:04.147Z,8.38
2022-09-05T13:38:56.134Z,7.07
2022-09-05T13:41:35.762Z,8.13
2022-09-05T13:44:26.415Z,7.45
2022-09-05T13:47:28.789Z,7.50
2022-09-05T13:50:19.938Z,6.38
2022-09-05T13:52:56.458Z,6.72
2022-09-05T13:55:36.400Z,6.22
2022-09-05T13:58:09.540Z,6.93
2022-09-05T14:00:50.831Z,7.13
2022-09-05T14:03:50.626Z,6.00
2022-09-05T14:07:43.835Z,6.00
2022-09-05T14:10:07.543Z,6.10
2022-09-05T14:13:00.675Z,6.60
2022-09-05T14:15:52.689Z,7.22
2022-09-05T14:18:24.957Z,7.18
2022-09-05T14:21:17.871Z,7.00
2022-09-05T14:24:12.620Z,6.25
2022-09-05T14:26:42.017Z,6.63
2022-09-05T14:29:29.999Z,6.80
2022-09-05T14:37:34.342Z,5.82
2022-09-05T14:37:50.761Z,6.25
2022-09-05T14:38:42.255Z,6.30
2022-09-05T14:41:28.545Z,6.30
2022-09-05T14:44:30.635Z,6.40
2022-09-05T14:46:57.381Z,6.38
2022-09-05T14:50:06.241Z,6.03
2022-09-05T14:52:43.419Z,6.40
2022-09-05T15:02:39.668Z,6.45
2022-09-05T15:02:52.716Z,6.80
2022-09-05T15:06:36.937Z,7.00
2022-09-05T15:12:21.215Z,6.85
2022-09-05T15:12:25.032Z,6.65
2022-09-05T15:15:30.993Z,6.30
2022-09-05T15:18:18.952Z,6.85
2022-09-05T15:20:51.680Z,6.72
2022-09-05T15:23:18.424Z,5.82
2022-09-05T15:26:16.608Z,6.40
2022-09-05T15:28:48.997Z,6.50
2022-09-05T15:31:26.509Z,5.90
2022-09-05T15:33:55.928Z,6.50
2022-09-05T15:36:37.939Z,6.50
2022-09-05T15:39:37.373Z,6.13
2022-09-05T15:42:22.548Z,6.05
2022-09-05T15:45:09.076Z,6.15
2022-09-05T15:47:39.612Z,6.20
2022-09-05T15:50:22.201Z,5.78
2022-09-05T15:52:53.535Z,6.40
2022-09-05T15:55:25.553Z,7.30
2022-09-05T15:58:10.104Z,7.03
2022-09-05T16:00:51.936Z,7.78
2022-09-05T16:06:14.011Z,7.55
2022-09-05T16:10:27.813Z,8.43
2022-09-05T16:10:48.476Z,8.50
2022-09-05T16:12:19.202Z,8.73
2022-09-05T16:15:43.195Z,8.77
2022-09-05T16:23:16.611Z,8.55
2022-09-05T16:23:28.090Z,8.55
2022-09-05T16:24:04.905Z,9.07
2022-09-05T16:26:40.934Z,8.07
2022-09-05T16:29:50.998Z,8.40
2022-09-05T16:32:23.142Z,9.18
2022-09-05T16:35:00.080Z,7.93
2022-09-05T16:37:38.196Z,7.18
2022-09-05T16:40:25.875Z,7.40
2022-09-05T16:43:05.052Z,6.43
2022-09-05T16:45:59.230Z,6.25
2022-09-05T16:48:44.734Z,6.35
2022-09-05T16:51:38.283Z,6.32
2022-09-05T16:54:30.256Z,7.20
2022-09-05T16:57:30.528Z,6.28
2022-09-05T17:00:01.602Z,6.10
2022-09-05T17:02:50.246Z,5.95
2022-09-05T17:05:46.053Z,5.80
2022-09-05T17:08:35.990Z,5.70
2022-09-05T17:11:13.705Z,5.75
2022-09-05T17:13:57.088Z,6.28
2022-09-05T17:16:34.880Z,5.20
2022-09-05T17:19:03.248Z,5.70
2022-09-05T17:25:05.417Z,5.30
2022-09-05T17:29:23.618Z,5.10
2022-09-05T17:29:32.960Z,5.10
2022-09-05T17:32:57.951Z,6.55
2022-09-05T17:35:42.459Z,6.65
2022-09-05T17:38:44.352Z,6.60
2022-09-05T17:41:58.737Z,5.63
2022-09-05T17:44:31.836Z,4.88
2022-09-05T17:47:15.460Z,4.80
2022-09-05T17:49:47.158Z,5.25
2022-09-05T17:52:16.428Z,4.72
2022-09-05T17:54:49.671Z,4.25
2022-09-05T17:57:29.319Z,5.00
2022-09-05T18:00:12.243Z,4.25
2022-09-05T18:02:59.607Z,4.20
2022-09-05T18:06:03.839Z,5.35
2022-09-05T18:08:57.011Z,4.15
2022-09-05T18:11:27.589Z,3.78
2022-09-05T18:14:02.912Z,4.10
2022-09-05T18:16:43.776Z,4.43
2022-09-05T18:19:37.010Z,4.10
2022-09-05T18:22:12.131Z,4.28
2022-09-05T18:25:30.898Z,4.82
2022-09-05T18:28:43.281Z,4.47
2022-09-05T18:31:41.914Z,4.78
2022-09-05T18:34:21.171Z,4.20
2022-09-05T18:36:49.367Z,4.38
2022-09-05T18:39:37.566Z,3.95
2022-09-05T18:42:34.456Z,3.83
2022-09-05T18:45:17.687Z,4.05
2022-09-05T18:48:00.158Z,4.57
2022-09-05T18:50:32.510Z,4.13
2022-09-05T18:53:09.941Z,3.88
2022-09-05T18:56:13.401Z,4.43
2022-09-05T18:59:10.954Z,3.92
2022-09-05T19:01:43.642Z,3.50
2022-09-05T19:04:33.004Z,4.13
2022-09-05T19:07:17.489Z,3.83
2022-09-05T19:10:34.628Z,4.18
2022-09-05T19:13:09.538Z,3.88
2022-09-05T19:15:48.281Z,4.47
2022-09-05T19:18:26.310Z,3.83
2022-09-05T19:21:12.139Z,4.45
2022-09-05T19:23:53.179Z,4.20
2022-09-05T19:26:22.092Z,4.28
2022-09-05T19:33:07.666Z,4.55
2022-09-05T19:36:55.953Z,4.95
2022-09-05T19:36:57.699Z,6.10
2022-09-05T19:37:46.378Z,10.75
2022-09-05T19:46:21.100Z,12.65
2022-09-05T19:47:43.456Z,14.85
2022-09-05T19:47:44.712Z,13.00
2022-09-05T19:49:09.311Z,11.32
2022-09-05T19:51:38.158Z,10.82
2022-09-05T19:54:05.947Z,10.75
2022-09-05T19:57:02.102Z,10.05
2022-09-05T19:59:45.001Z,9.55
2022-09-05T20:02:26.918Z,7.88
2022-09-05T20:04:59.077Z,6.50
2022-09-05T20:07:28.466Z,5.30
2022-09-05T20:09:59.350Z,5.82
2022-09-05T20:12:31.947Z,5.78
2022-09-05T20:15:23.091Z,5.30
2022-09-05T20:17:52.239Z,5.47
2022-09-05T20:20:22.585Z,4.90
2022-09-05T20:23:05.931Z,5.07
2022-09-05T20:25:44.453Z,4.50
2022-09-05T20:28:17.351Z,6.97
2022-09-05T20:30:48.553Z,25.80
2022-09-05T20:33:31.212Z,31.35
2022-09-05T20:41:11.613Z,22.80
2022-09-05T20:43:23.466Z,12.52
2022-09-05T20:43:30.868Z,10.40
2022-09-05T20:44:50.503Z,6.78
2022-09-05T20:54:06.656Z,5.60
2022-09-05T20:54:18.049Z,5.15
2022-09-05T20:54:24.999Z,5.28
2022-09-05T20:56:32.849Z,4.47
2022-09-05T20:59:00.991Z,26.67
2022-09-05T21:01:32.812Z,29.25
2022-09-05T21:04:02.546Z,43.97
2022-09-05T21:06:33.367Z,29.05
2022-09-05T21:09:24.288Z,20.00
2022-09-05T21:11:58.789Z,30.45
2022-09-05T21:14:28.769Z,49.10
2022-09-05T21:17:15.927Z,39.75
2022-09-05T21:19:53.697Z,27.63
2022-09-05T21:22:21.258Z,18.00
2022-09-05T21:24:49.297Z,14.63
2022-09-05T21:27:22.522Z,10.73
2022-09-05T21:29:55.921Z,8.82
2022-09-05T21:32:38.256Z,6.55
2022-09-05T21:35:15.445Z,6.30
2022-09-05T21:37:57.215Z,6.60
2022-09-05T21:40:24.122Z,5.40
2022-09-05T21:47:34.094Z,6.15
2022-09-05T21:47:48.112Z,6.05
2022-09-05T21:48:26.895Z,5.47
2022-09-05T21:50:56.890Z,5.60
2022-09-05T21:59:22.148Z,5.00
2022-09-05T21:59:26.231Z,5.20
2022-09-05T22:02:08.455Z,6.20
2022-09-05T22:04:41.659Z,6.03
2022-09-05T22:07:24.253Z,5.47
2022-09-05T22:09:59.956Z,6.30
2022-09-05T22:12:31.390Z,5.70
2022-09-05T22:15:08.671Z,5.63
2022-09-05T22:17:47.213Z,5.80
2022-09-05T22:20:17.255Z,5.00
2022-09-05T22:22:45.278Z,5.38
2022-09-05T22:25:35.414Z,5.13
2022-09-05T22:28:12.123Z,5.65
2022-09-05T22:30:39.761Z,4.40
2022-09-05T22:33:07.900Z,5.05
2022-09-05T22:35:39.049Z,5.20
2022-09-05T22:38:16.461Z,5.22
2022-09-05T22:40:46.210Z,4.88
2022-09-05T22:43:15.735Z,4.95
2022-09-05T22:45:42.572Z,4.57
2022-09-05T22:48:12.246Z,4.95
2022-09-05T22:50:40.019Z,5.05
2022-09-05T22:53:08.562Z,4.40
2022-09-05T22:55:37.132Z,5.13
2022-09-05T22:58:05.827Z,5.05
2022-09-05T23:00:34.684Z,5.15
2022-09-05T23:03:04.324Z,4.90
2022-09-05T23:05:32.778Z,4.43
2022-09-05T23:08:01.062Z,5.35
2022-09-05T23:10:29.590Z,5.03
2022-09-05T23:12:56.849Z,4.70
2022-09-05T23:15:23.747Z,4.88
2022-09-05T23:17:58.593Z,5.07
2022-09-05T23:20:28.351Z,5.15
2022-09-05T23:22:55.948Z,4.80
2022-09-05T23:25:23.541Z,4.30
2022-09-05T23:27:50.861Z,4.85
2022-09-05T23:30:18.188Z,4.95
2022-09-05T23:32:50.068Z,4.85
2022-09-05T23:35:18.238Z,4.75
2022-09-05T23:37:46.531Z,5.13
2022-09-05T23:40:14.913Z,4.72
2022-09-05T23:42:41.749Z,4.88
2022-09-05T23:45:09.650Z,4.88
2022-09-05T23:47:37.059Z,4.90
2022-09-05T23:50:04.937Z,4.53
2022-09-05T23:52:31.742Z,4.88
2022-09-05T23:54:58.538Z,4.70
2022-09-05T23:57:28.443Z,4.60
2022-09-05T23:59:55.277Z,4.45
